sensor_id;sensor_type;location;lat;lon;timestamp;pressure;altitude;pressure_sealevel;temperature;humidity
71476;BME280;59286;59.274;17.974;2023-12-20T00:01:00;99169.44;;;-0.60;100.00
71476;BME280;59286;59.274;17.974;2023-12-20T00:03:28;99158.06;;;-0.69;100.00
71476;BME280;59286;59.274;17.974;2023-12-20T00:05:54;99165.03;;;-0.69;100.00
71476;BME280;59286;59.274;17.974;2023-12-20T00:08:20;99157.31;;;-0.69;100.00
71476;BME280;59286;59.274;17.974;2023-12-20T00:10:45;99165.78;;;-0.69;100.00
71476;BME280;59286;59.274;17.974;2023-12-20T00:13:11;99173.00;;;-0.61;100.00
71476;BME280;59286;59.274;17.974;2023-12-20T00:15:36;99166.56;;;-0.68;100.00
71476;BME280;59286;59.274;17.974;2023-12-20T00:18:02;99155.25;;;-0.77;100.00
71476;BME280;59286;59.274;17.974;2023-12-20T00:20:28;99153.94;;;-0.90;100.00
71476;BME280;59286;59.274;17.974;2023-12-20T00:22:56;99156.25;;;-0.93;100.00
71476;BME280;59286;59.274;17.974;2023-12-20T00:25:22;99120.72;;;-1.17;100.00
71476;BME280;59286;59.274;17.974;2023-12-20T00:27:47;99115.06;;;-1.14;100.00
71476;BME280;59286;59.274;17.974;2023-12-20T00:30:13;99156.50;;;-0.95;100.00
71476;BME280;59286;59.274;17.974;2023-12-20T00:32:38;99148.28;;;-0.97;100.00
71476;BME280;59286;59.274;17.974;2023-12-20T00:35:04;99130.78;;;-1.10;100.00
71476;BME280;59286;59.274;17.974;2023-12-20T00:37:29;99126.63;;;-1.16;100.00
71476;BME280;59286;59.274;17.974;2023-12-20T00:39:54;99107.34;;;-1.29;100.00
71476;BME280;59286;59.274;17.974;2023-12-20T00:42:20;99124.06;;;-1.16;100.00
71476;BME280;59286;59.274;17.974;2023-12-20T00:44:45;99125.59;;;-1.20;100.00
71476;BME280;59286;59.274;17.974;2023-12-20T00:47:10;99120.94;;;-1.28;100.00
71476;BME280;59286;59.274;17.974;2023-12-20T00:49:36;99161.09;;;-1.02;100.00
71476;BME280;59286;59.274;17.974;2023-12-20T00:52:01;99126.13;;;-1.23;100.00
71476;BME280;59286;59.274;17.974;2023-12-20T00:54:27;99127.38;;;-1.21;100.00
71476;BME280;59286;59.274;17.974;2023-12-20T00:56:53;99128.94;;;-1.20;100.00
71476;BME280;59286;59.274;17.974;2023-12-20T00:59:19;99131.50;;;-1.20;100.00
71476;BME280;59286;59.274;17.974;2023-12-20T01:01:45;99125.06;;;-1.22;100.00
71476;BME280;59286;59.274;17.974;2023-12-20T01:04:10;99124.00;;;-1.36;100.00
71476;BME280;59286;59.274;17.974;2023-12-20T01:06:36;99129.16;;;-1.26;100.00
71476;BME280;59286;59.274;17.974;2023-12-20T01:09:01;99122.22;;;-1.31;100.00
71476;BME280;59286;59.274;17.974;2023-12-20T01:11:27;99155.16;;;-1.18;100.00
71476;BME280;59286;59.274;17.974;2023-12-20T01:13:52;99147.19;;;-1.11;100.00
71476;BME280;59286;59.274;17.974;2023-12-20T01:16:18;99152.59;;;-1.18;100.00
71476;BME280;59286;59.274;17.974;2023-12-20T01:18:43;99116.00;;;-1.50;100.00
71476;BME280;59286;59.274;17.974;2023-12-20T01:21:11;99178.53;;;-1.19;100.00
71476;BME280;59286;59.274;17.974;2023-12-20T01:23:37;99173.91;;;-1.17;100.00
71476;BME280;59286;59.274;17.974;2023-12-20T01:26:03;99151.00;;;-1.34;100.00
71476;BME280;59286;59.274;17.974;2023-12-20T01:28:29;99158.22;;;-1.21;100.00
71476;BME280;59286;59.274;17.974;2023-12-20T01:30:55;99116.00;;;-1.40;100.00
71476;BME280;59286;59.274;17.974;2023-12-20T01:33:20;99142.81;;;-1.16;100.00
71476;BME280;59286;59.274;17.974;2023-12-20T01:35:45;99171.16;;;-0.90;100.00
71476;BME280;59286;59.274;17.974;2023-12-20T01:38:11;99128.16;;;-1.20;100.00
71476;BME280;59286;59.274;17.974;2023-12-20T01:40:39;99096.75;;;-1.42;100.00
71476;BME280;59286;59.274;17.974;2023-12-20T01:43:07;99127.13;;;-1.19;100.00
71476;BME280;59286;59.274;17.974;2023-12-20T01:45:33;99108.59;;;-1.26;100.00
71476;BME280;59286;59.274;17.974;2023-12-20T01:47:59;99125.59;;;-1.15;100.00
71476;BME280;59286;59.274;17.974;2023-12-20T01:50:25;99132.56;;;-1.06;100.00
71476;BME280;59286;59.274;17.974;2023-12-20T01:52:52;99100.94;;;-1.16;100.00
71476;BME280;59286;59.274;17.974;2023-12-20T01:55:21;99116.91;;;-0.99;100.00
71476;BME280;59286;59.274;17.974;2023-12-20T01:57:46;99104.03;;;-1.09;100.00
71476;BME280;59286;59.274;17.974;2023-12-20T02:00:13;99143.91;;;-0.86;100.00
71476;BME280;59286;59.274;17.974;2023-12-20T02:02:40;99146.50;;;-0.71;100.00
71476;BME280;59286;59.274;17.974;2023-12-20T02:05:06;99099.41;;;-1.07;100.00
71476;BME280;59286;59.274;17.974;2023-12-20T02:07:32;99085.00;;;-1.18;100.00
71476;BME280;59286;59.274;17.974;2023-12-20T02:09:58;99116.38;;;-1.01;100.00
71476;BME280;59286;59.274;17.974;2023-12-20T02:12:23;99128.72;;;-0.93;100.00
71476;BME280;59286;59.274;17.974;2023-12-20T02:14:49;99132.38;;;-0.84;100.00
71476;BME280;59286;59.274;17.974;2023-12-20T02:17:15;99089.88;;;-1.12;100.00
71476;BME280;59286;59.274;17.974;2023-12-20T02:19:41;99085.25;;;-1.15;100.00
71476;BME280;59286;59.274;17.974;2023-12-20T02:22:12;99070.84;;;-1.21;100.00
71476;BME280;59286;59.274;17.974;2023-12-20T02:24:38;99074.72;;;-1.18;100.00
71476;BME280;59286;59.274;17.974;2023-12-20T02:27:06;99061.31;;;-1.30;100.00
71476;BME280;59286;59.274;17.974;2023-12-20T02:29:35;99104.53;;;-1.02;100.00
71476;BME280;59286;59.274;17.974;2023-12-20T02:32:02;99088.34;;;-1.03;100.00
71476;BME280;59286;59.274;17.974;2023-12-20T02:34:28;99085.78;;;-1.08;100.00
71476;BME280;59286;59.274;17.974;2023-12-20T02:36:54;99088.84;;;-1.06;100.00
71476;BME280;59286;59.274;17.974;2023-12-20T02:39:21;99037.19;;;-1.29;100.00
71476;BME280;59286;59.274;17.974;2023-12-20T02:41:46;99081.41;;;-1.07;100.00
71476;BME280;59286;59.274;17.974;2023-12-20T02:44:12;99076.25;;;-1.17;100.00
71476;BME280;59286;59.274;17.974;2023-12-20T02:46:37;99071.88;;;-1.12;100.00
71476;BME280;59286;59.274;17.974;2023-12-20T02:49:02;99093.50;;;-0.92;100.00
71476;BME280;59286;59.274;17.974;2023-12-20T02:51:28;99062.63;;;-1.08;100.00
71476;BME280;59286;59.274;17.974;2023-12-20T02:53:53;99092.72;;;-1.03;100.00
71476;BME280;59286;59.274;17.974;2023-12-20T02:56:19;99096.06;;;-0.98;100.00
71476;BME280;59286;59.274;17.974;2023-12-20T02:58:44;99092.22;;;-1.10;100.00
71476;BME280;59286;59.274;17.974;2023-12-20T03:01:09;99053.88;;;-1.32;100.00
71476;BME280;59286;59.274;17.974;2023-12-20T03:03:35;99077.28;;;-1.13;100.00
71476;BME280;59286;59.274;17.974;2023-12-20T03:06:00;99059.56;;;-1.20;100.00
71476;BME280;59286;59.274;17.974;2023-12-20T03:08:26;99068.28;;;-1.06;100.00
71476;BME280;59286;59.274;17.974;2023-12-20T03:10:51;99077.56;;;-0.94;100.00
71476;BME280;59286;59.274;17.974;2023-12-20T03:13:16;99119.50;;;-0.64;100.00
71476;BME280;59286;59.274;17.974;2023-12-20T03:15:42;99067.00;;;-0.93;100.00
71476;BME280;59286;59.274;17.974;2023-12-20T03:18:07;99064.47;;;-0.88;100.00
71476;BME280;59286;59.274;17.974;2023-12-20T03:20:33;99096.59;;;-0.70;100.00
71476;BME280;59286;59.274;17.974;2023-12-20T03:23:00;99074.22;;;-0.80;100.00
71476;BME280;59286;59.274;17.974;2023-12-20T03:25:25;99078.84;;;-0.72;100.00
71476;BME280;59286;59.274;17.974;2023-12-20T03:27:52;99060.34;;;-0.79;100.00
71476;BME280;59286;59.274;17.974;2023-12-20T03:30:18;99044.41;;;-0.86;100.00
71476;BME280;59286;59.274;17.974;2023-12-20T03:32:44;99040.53;;;-0.83;100.00
71476;BME280;59286;59.274;17.974;2023-12-20T03:35:09;99086.53;;;-0.37;100.00
71476;BME280;59286;59.274;17.974;2023-12-20T03:37:35;99001.19;;;-0.89;100.00
71476;BME280;59286;59.274;17.974;2023-12-20T03:40:01;99012.75;;;-0.76;100.00
71476;BME280;59286;59.274;17.974;2023-12-20T03:42:26;99017.09;;;-0.67;100.00
71476;BME280;59286;59.274;17.974;2023-12-20T03:44:52;99024.28;;;-0.54;100.00
71476;BME280;59286;59.274;17.974;2023-12-20T03:47:17;99031.25;;;-0.49;100.00
71476;BME280;59286;59.274;17.974;2023-12-20T03:49:42;99045.91;;;-0.40;100.00
71476;BME280;59286;59.274;17.974;2023-12-20T03:52:08;99024.28;;;-0.44;100.00
71476;BME280;59286;59.274;17.974;2023-12-20T03:54:35;99017.84;;;-0.46;100.00
71476;BME280;59286;59.274;17.974;2023-12-20T03:57:00;99004.50;;;-0.53;100.00
71476;BME280;59286;59.274;17.974;2023-12-20T03:59:25;99048.94;;;-0.28;100.00
71476;BME280;59286;59.274;17.974;2023-12-20T04:01:51;99040.22;;;-0.37;100.00
71476;BME280;59286;59.274;17.974;2023-12-20T04:04:16;99026.84;;;-0.39;100.00
71476;BME280;59286;59.274;17.974;2023-12-20T04:06:44;99007.59;;;-0.56;100.00
71476;BME280;59286;59.274;17.974;2023-12-20T04:09:09;99064.13;;;-0.21;100.00
71476;BME280;59286;59.274;17.974;2023-12-20T04:11:35;99037.16;;;-0.34;100.00
71476;BME280;59286;59.274;17.974;2023-12-20T04:14:01;99064.38;;;-0.08;100.00
71476;BME280;59286;59.274;17.974;2023-12-20T04:16:26;99029.41;;;-0.34;100.00
71476;BME280;59286;59.274;17.974;2023-12-20T04:18:52;99022.72;;;-0.45;100.00
71476;BME280;59286;59.274;17.974;2023-12-20T04:21:17;99026.59;;;-0.42;100.00
71476;BME280;59286;59.274;17.974;2023-12-20T04:23:43;99050.47;;;-0.22;100.00
71476;BME280;59286;59.274;17.974;2023-12-20T04:26:09;99012.94;;;-0.43;100.00
71476;BME280;59286;59.274;17.974;2023-12-20T04:28:34;99021.69;;;-0.39;100.00
71476;BME280;59286;59.274;17.974;2023-12-20T04:31:00;99050.47;;;-0.17;100.00
71476;BME280;59286;59.274;17.974;2023-12-20T04:33:25;99007.06;;;-0.43;100.00
71476;BME280;59286;59.274;17.974;2023-12-20T04:35:50;99003.22;;;-0.51;100.00
71476;BME280;59286;59.274;17.974;2023-12-20T04:38:18;98992.38;;;-0.48;100.00
71476;BME280;59286;59.274;17.974;2023-12-20T04:40:43;99026.03;;;-0.24;100.00
71476;BME280;59286;59.274;17.974;2023-12-20T04:43:09;99038.34;;;-0.06;100.00
71476;BME280;59286;59.274;17.974;2023-12-20T04:45:34;99015.25;;;-0.26;100.00
71476;BME280;59286;59.274;17.974;2023-12-20T04:48:01;98994.91;;;-0.23;100.00
71476;BME280;59286;59.274;17.974;2023-12-20T04:50:26;99014.16;;;-0.10;100.00
71476;BME280;59286;59.274;17.974;2023-12-20T04:52:52;98981.75;;;-0.21;100.00
71476;BME280;59286;59.274;17.974;2023-12-20T04:55:17;98977.63;;;-0.17;100.00
71476;BME280;59286;59.274;17.974;2023-12-20T04:57:44;99018.75;;;0.03;100.00
71476;BME280;59286;59.274;17.974;2023-12-20T05:00:10;99044.69;;;0.22;100.00
71476;BME280;59286;59.274;17.974;2023-12-20T05:02:36;99024.09;;;0.17;100.00
71476;BME280;59286;59.274;17.974;2023-12-20T05:05:01;99018.69;;;0.13;100.00
71476;BME280;59286;59.274;17.974;2023-12-20T05:07:27;98973.75;;;-0.10;100.00
71476;BME280;59286;59.274;17.974;2023-12-20T05:09:52;98982.22;;;-0.04;100.00
71476;BME280;59286;59.274;17.974;2023-12-20T05:12:18;98992.50;;;-0.04;100.00
71476;BME280;59286;59.274;17.974;2023-12-20T05:14:46;98984.53;;;-0.08;100.00
71476;BME280;59286;59.274;17.974;2023-12-20T05:17:11;98948.06;;;-0.30;100.00
71476;BME280;59286;59.274;17.974;2023-12-20T05:19:37;98962.94;;;-0.12;100.00
71476;BME280;59286;59.274;17.974;2023-12-20T05:22:02;98998.13;;;0.03;100.00
71476;BME280;59286;59.274;17.974;2023-12-20T05:24:28;98991.44;;;0.02;100.00
71476;BME280;59286;59.274;17.974;2023-12-20T05:26:53;98965.44;;;-0.02;100.00
71476;BME280;59286;59.274;17.974;2023-12-20T05:29:19;98966.50;;;-0.03;100.00
71476;BME280;59286;59.274;17.974;2023-12-20T05:31:45;98989.88;;;0.11;100.00
71476;BME280;59286;59.274;17.974;2023-12-20T05:34:10;98972.63;;;0.07;100.00
71476;BME280;59286;59.274;17.974;2023-12-20T05:36:36;98988.50;;;0.24;100.00
71476;BME280;59286;59.274;17.974;2023-12-20T05:39:02;98982.88;;;0.17;100.00
71476;BME280;59286;59.274;17.974;2023-12-20T05:41:31;98971.03;;;0.16;100.00
71476;BME280;59286;59.274;17.974;2023-12-20T05:43:56;98974.56;;;0.25;100.00
71476;BME280;59286;59.274;17.974;2023-12-20T05:46:23;98950.16;;;0.17;100.00
71476;BME280;59286;59.274;17.974;2023-12-20T05:48:49;98932.44;;;0.11;100.00
71476;BME280;59286;59.274;17.974;2023-12-20T05:51:15;98935.19;;;0.24;100.00
71476;BME280;59286;59.274;17.974;2023-12-20T05:53:40;98952.84;;;0.41;100.00
71476;BME280;59286;59.274;17.974;2023-12-20T05:56:06;98964.63;;;0.52;100.00
71476;BME280;59286;59.274;17.974;2023-12-20T05:58:32;98946.94;;;0.40;100.00
71476;BME280;59286;59.274;17.974;2023-12-20T06:00:58;98942.56;;;0.36;100.00
71476;BME280;59286;59.274;17.974;2023-12-20T06:03:23;98964.63;;;0.52;100.00
71476;BME280;59286;59.274;17.974;2023-12-20T06:05:49;98954.06;;;0.53;100.00
71476;BME280;59286;59.274;17.974;2023-12-20T06:08:14;98935.28;;;0.48;100.00
71476;BME280;59286;59.274;17.974;2023-12-20T06:10:40;98932.19;;;0.46;100.00
71476;BME280;59286;59.274;17.974;2023-12-20T06:13:05;98981.97;;;0.80;100.00
71476;BME280;59286;59.274;17.974;2023-12-20T06:15:32;98947.63;;;0.51;100.00
71476;BME280;59286;59.274;17.974;2023-12-20T06:17:57;98921.16;;;0.40;100.00
71476;BME280;59286;59.274;17.974;2023-12-20T06:20:23;98961.41;;;0.70;100.00
71476;BME280;59286;59.274;17.974;2023-12-20T06:22:48;98969.09;;;0.75;100.00
71476;BME280;59286;59.274;17.974;2023-12-20T06:25:16;98925.47;;;0.50;100.00
71476;BME280;59286;59.274;17.974;2023-12-20T06:27:41;98945.63;;;0.76;100.00
71476;BME280;59286;59.274;17.974;2023-12-20T06:30:07;98940.22;;;0.78;100.00
71476;BME280;59286;59.274;17.974;2023-12-20T06:32:34;98919.34;;;0.74;100.00
71476;BME280;59286;59.274;17.974;2023-12-20T06:35:00;98917.06;;;0.68;100.00
71476;BME280;59286;59.274;17.974;2023-12-20T06:37:26;98912.19;;;0.66;100.00
71476;BME280;59286;59.274;17.974;2023-12-20T06:39:51;98895.72;;;0.62;100.00
71476;BME280;59286;59.274;17.974;2023-12-20T06:42:16;98913.91;;;0.76;100.00
71476;BME280;59286;59.274;17.974;2023-12-20T06:44:42;98902.19;;;0.60;100.00
71476;BME280;59286;59.274;17.974;2023-12-20T06:47:08;98918.06;;;0.72;100.00
71476;BME280;59286;59.274;17.974;2023-12-20T06:49:33;98887.38;;;0.42;100.00
71476;BME280;59286;59.274;17.974;2023-12-20T06:51:58;98881.22;;;0.38;100.00
71476;BME280;59286;59.274;17.974;2023-12-20T06:54:24;98861.50;;;0.23;100.00
71476;BME280;59286;59.274;17.974;2023-12-20T06:56:49;98900.94;;;0.52;100.00
71476;BME280;59286;59.274;17.974;2023-12-20T06:59:15;98914.00;;;0.66;100.00
71476;BME280;59286;59.274;17.974;2023-12-20T07:01:41;98956.84;;;0.90;100.00
71476;BME280;59286;59.274;17.974;2023-12-20T07:04:06;98898.63;;;0.56;100.00
71476;BME280;59286;59.274;17.974;2023-12-20T07:06:31;98867.28;;;0.44;100.00
71476;BME280;59286;59.274;17.974;2023-12-20T07:08:57;98907.66;;;0.53;100.00
71476;BME280;59286;59.274;17.974;2023-12-20T07:11:22;98897.84;;;0.55;100.00
71476;BME280;59286;59.274;17.974;2023-12-20T07:13:48;98899.38;;;0.56;100.00
71476;BME280;59286;59.274;17.974;2023-12-20T07:16:14;98877.66;;;0.34;100.00
71476;BME280;59286;59.274;17.974;2023-12-20T07:18:40;98900.47;;;0.50;100.00
71476;BME280;59286;59.274;17.974;2023-12-20T07:21:05;98920.22;;;0.60;100.00
71476;BME280;59286;59.274;17.974;2023-12-20T07:23:33;98872.75;;;0.37;100.00
71476;BME280;59286;59.274;17.974;2023-12-20T07:25:59;98924.84;;;0.63;100.00
71476;BME280;59286;59.274;17.974;2023-12-20T07:28:24;98891.47;;;0.48;100.00
71476;BME280;59286;59.274;17.974;2023-12-20T07:30:50;98862.97;;;0.34;100.00
71476;BME280;59286;59.274;17.974;2023-12-20T07:33:15;98873.53;;;0.33;100.00
71476;BME280;59286;59.274;17.974;2023-12-20T07:35:41;98862.25;;;0.29;100.00
71476;BME280;59286;59.274;17.974;2023-12-20T07:38:06;98882.19;;;0.47;100.00
71476;BME280;59286;59.274;17.974;2023-12-20T07:40:32;98900.88;;;0.62;100.00
71476;BME280;59286;59.274;17.974;2023-12-20T07:42:57;98848.84;;;0.32;100.00
71476;BME280;59286;59.274;17.974;2023-12-20T07:45:23;98858.25;;;0.41;100.00
71476;BME280;59286;59.274;17.974;2023-12-20T07:47:48;98884.41;;;0.58;100.00
71476;BME280;59286;59.274;17.974;2023-12-20T07:50:15;98858.59;;;0.35;100.00
71476;BME280;59286;59.274;17.974;2023-12-20T07:52:40;98834.44;;;0.26;100.00
71476;BME280;59286;59.274;17.974;2023-12-20T07:55:06;98831.66;;;0.22;100.00
71476;BME280;59286;59.274;17.974;2023-12-20T07:57:32;98829.81;;;0.28;100.00
71476;BME280;59286;59.274;17.974;2023-12-20T07:59:57;98855.19;;;0.39;100.00
71476;BME280;59286;59.274;17.974;2023-12-20T08:02:22;98908.66;;;0.86;100.00
71476;BME280;59286;59.274;17.974;2023-12-20T08:04:48;98887.63;;;0.74;100.00
71476;BME280;59286;59.274;17.974;2023-12-20T08:07:13;98851.75;;;0.54;100.00
71476;BME280;59286;59.274;17.974;2023-12-20T08:09:38;98818.22;;;0.25;100.00
71476;BME280;59286;59.274;17.974;2023-12-20T08:12:04;98832.63;;;0.26;100.00
71476;BME280;59286;59.274;17.974;2023-12-20T08:14:29;98837.78;;;0.26;100.00
71476;BME280;59286;59.274;17.974;2023-12-20T08:16:55;98823.22;;;0.12;100.00
71476;BME280;59286;59.274;17.974;2023-12-20T08:19:20;98845.28;;;0.23;100.00
71476;BME280;59286;59.274;17.974;2023-12-20T08:21:46;98818.88;;;0.07;100.00
71476;BME280;59286;59.274;17.974;2023-12-20T08:24:11;98817.66;;;-0.01;100.00
71476;BME280;59286;59.274;17.974;2023-12-20T08:26:36;98855.00;;;0.31;100.00
71476;BME280;59286;59.274;17.974;2023-12-20T08:29:02;98843.19;;;0.25;100.00
71476;BME280;59286;59.274;17.974;2023-12-20T08:31:27;98802.94;;;0.05;100.00
71476;BME280;59286;59.274;17.974;2023-12-20T08:33:53;98887.94;;;0.67;100.00
71476;BME280;59286;59.274;17.974;2023-12-20T08:36:19;98812.78;;;0.27;100.00
71476;BME280;59286;59.274;17.974;2023-12-20T08:38:46;98816.81;;;0.38;100.00
71476;BME280;59286;59.274;17.974;2023-12-20T08:41:12;98820.84;;;0.49;100.00
71476;BME280;59286;59.274;17.974;2023-12-20T08:43:37;98822.34;;;0.55;100.00
71476;BME280;59286;59.274;17.974;2023-12-20T08:46:05;98862.25;;;0.86;100.00
71476;BME280;59286;59.274;17.974;2023-12-20T08:48:30;98868.94;;;0.87;100.00
71476;BME280;59286;59.274;17.974;2023-12-20T08:50:59;98800.94;;;0.54;100.00
71476;BME280;59286;59.274;17.974;2023-12-20T08:53:24;98823.72;;;0.71;100.00
71476;BME280;59286;59.274;17.974;2023-12-20T08:55:50;98812.94;;;0.69;100.00
71476;BME280;59286;59.274;17.974;2023-12-20T08:58:15;98863.59;;;1.07;100.00
71476;BME280;59286;59.274;17.974;2023-12-20T09:00:41;98796.97;;;0.67;100.00
71476;BME280;59286;59.274;17.974;2023-12-20T09:03:07;98845.25;;;1.09;100.00
71476;BME280;59286;59.274;17.974;2023-12-20T09:05:32;98824.25;;;0.96;100.00
71476;BME280;59286;59.274;17.974;2023-12-20T09:07:57;98837.78;;;1.07;100.00
71476;BME280;59286;59.274;17.974;2023-12-20T09:10:23;98803.66;;;0.91;100.00
71476;BME280;59286;59.274;17.974;2023-12-20T09:12:52;98858.19;;;1.27;100.00
71476;BME280;59286;59.274;17.974;2023-12-20T09:15:22;98815.16;;;0.99;100.00
71476;BME280;59286;59.274;17.974;2023-12-20T09:17:48;98841.13;;;1.31;100.00
71476;BME280;59286;59.274;17.974;2023-12-20T09:20:13;98805.25;;;1.11;100.00
71476;BME280;59286;59.274;17.974;2023-12-20T09:22:39;98828.28;;;1.26;100.00
71476;BME280;59286;59.274;17.974;2023-12-20T09:25:05;98782.63;;;1.03;100.00
71476;BME280;59286;59.274;17.974;2023-12-20T09:27:30;98817.69;;;1.28;100.00
71476;BME280;59286;59.274;17.974;2023-12-20T09:29:56;98826.41;;;1.32;100.00
71476;BME280;59286;59.274;17.974;2023-12-20T09:32:21;98829.13;;;1.40;100.00
71476;BME280;59286;59.274;17.974;2023-12-20T09:34:47;98791.19;;;1.22;100.00
71476;BME280;59286;59.274;17.974;2023-12-20T09:37:13;98783.44;;;1.22;100.00
71476;BME280;59286;59.274;17.974;2023-12-20T09:39:38;98766.97;;;1.18;100.00
71476;BME280;59286;59.274;17.974;2023-12-20T09:42:04;98777.19;;;1.28;100.00
71476;BME280;59286;59.274;17.974;2023-12-20T09:44:31;98760.72;;;1.24;100.00
71476;BME280;59286;59.274;17.974;2023-12-20T09:46:58;98785.91;;;1.51;100.00
71476;BME280;59286;59.274;17.974;2023-12-20T09:49:25;98763.63;;;1.36;100.00
71476;BME280;59286;59.274;17.974;2023-12-20T09:51:53;98770.69;;;1.49;100.00
71476;BME280;59286;59.274;17.974;2023-12-20T09:54:20;98756.25;;;1.48;100.00
71476;BME280;59286;59.274;17.974;2023-12-20T09:56:46;98748.09;;;1.41;100.00
71476;BME280;59286;59.274;17.974;2023-12-20T09:59:12;98717.34;;;1.26;100.00
71476;BME280;59286;59.274;17.974;2023-12-20T10:01:39;98768.94;;;1.63;100.00
71476;BME280;59286;59.274;17.974;2023-12-20T10:04:06;98725.41;;;1.38;100.00
71476;BME280;59286;59.274;17.974;2023-12-20T10:06:37;98727.16;;;1.43;100.00
71476;BME280;59286;59.274;17.974;2023-12-20T10:09:03;98711.81;;;1.33;100.00
71476;BME280;59286;59.274;17.974;2023-12-20T10:11:29;98698.22;;;1.27;100.00
71476;BME280;59286;59.274;17.974;2023-12-20T10:14:01;98670.81;;;1.13;100.00
71476;BME280;59286;59.274;17.974;2023-12-20T10:16:27;98669.28;;;1.12;100.00
71476;BME280;59286;59.274;17.974;2023-12-20T10:18:54;98712.94;;;1.45;100.00
71476;BME280;59286;59.274;17.974;2023-12-20T10:21:20;98649.50;;;1.07;100.00
71476;BME280;59286;59.274;17.974;2023-12-20T10:23:45;98637.38;;;1.08;100.00
71476;BME280;59286;59.274;17.974;2023-12-20T10:26:19;98717.22;;;1.68;100.00
71476;BME280;59286;59.274;17.974;2023-12-20T10:28:45;98637.09;;;1.09;100.00
71476;BME280;59286;59.274;17.974;2023-12-20T10:31:10;98663.16;;;1.26;100.00
71476;BME280;59286;59.274;17.974;2023-12-20T10:33:36;98657.50;;;1.24;100.00
71476;BME280;59286;59.274;17.974;2023-12-20T10:36:01;98688.94;;;1.45;100.00
71476;BME280;59286;59.274;17.974;2023-12-20T10:38:28;98638.53;;;1.15;100.00
71476;BME280;59286;59.274;17.974;2023-12-20T10:40:57;98683.00;;;1.44;100.00
71476;BME280;59286;59.274;17.974;2023-12-20T10:43:24;98647.66;;;1.26;100.00
71476;BME280;59286;59.274;17.974;2023-12-20T10:45:51;98615.38;;;1.10;100.00
71476;BME280;59286;59.274;17.974;2023-12-20T10:48:18;98619.03;;;1.09;100.00
71476;BME280;59286;59.274;17.974;2023-12-20T10:50:44;98672.59;;;1.49;100.00
71476;BME280;59286;59.274;17.974;2023-12-20T10:53:10;98636.03;;;1.29;100.00
71476;BME280;59286;59.274;17.974;2023-12-20T10:55:37;98673.75;;;1.57;100.00
71476;BME280;59286;59.274;17.974;2023-12-20T10:58:13;98612.56;;;1.12;100.00
71476;BME280;59286;59.274;17.974;2023-12-20T11:00:40;98599.22;;;1.05;100.00
71476;BME280;59286;59.274;17.974;2023-12-20T11:03:09;98577.50;;;0.92;100.00
71476;BME280;59286;59.274;17.974;2023-12-20T11:05:52;98591.47;;;1.05;100.00
71476;BME280;59286;59.274;17.974;2023-12-20T11:08:25;98654.06;;;1.47;100.00
71476;BME280;59286;59.274;17.974;2023-12-20T11:11:05;98602.44;;;1.15;100.00
71476;BME280;59286;59.274;17.974;2023-12-20T11:13:58;98639.53;;;1.51;100.00
71476;BME280;59286;59.274;17.974;2023-12-20T11:16:28;98639.31;;;1.48;100.00
71476;BME280;59286;59.274;17.974;2023-12-20T11:18:53;98628.50;;;1.46;100.00
71476;BME280;59286;59.274;17.974;2023-12-20T11:21:18;98559.78;;;1.04;100.00
71476;BME280;59286;59.274;17.974;2023-12-20T11:23:44;98575.28;;;1.18;100.00
71476;BME280;59286;59.274;17.974;2023-12-20T11:26:15;98612.28;;;1.45;100.00
71476;BME280;59286;59.274;17.974;2023-12-20T11:28:41;98551.97;;;1.09;100.00
71476;BME280;59286;59.274;17.974;2023-12-20T11:31:06;98556.47;;;1.17;100.00
71476;BME280;59286;59.274;17.974;2023-12-20T11:33:38;98534.00;;;1.04;100.00
71476;BME280;59286;59.274;17.974;2023-12-20T11:36:12;98584.03;;;1.35;100.00
71476;BME280;59286;59.274;17.974;2023-12-20T11:38:38;98527.78;;;1.05;100.00
71476;BME280;59286;59.274;17.974;2023-12-20T11:41:07;98543.09;;;1.15;100.00
71476;BME280;59286;59.274;17.974;2023-12-20T11:43:35;98526.44;;;1.08;100.00
71476;BME280;59286;59.274;17.974;2023-12-20T11:46:05;98538.34;;;1.22;100.00
71476;BME280;59286;59.274;17.974;2023-12-20T11:48:31;98537.22;;;1.28;100.00
71476;BME280;59286;59.274;17.974;2023-12-20T11:50:57;98541.78;;;1.31;100.00
71476;BME280;59286;59.274;17.974;2023-12-20T11:53:23;98535.00;;;1.35;100.00
71476;BME280;59286;59.274;17.974;2023-12-20T11:55:49;98512.44;;;1.14;100.00
71476;BME280;59286;59.274;17.974;2023-12-20T11:58:14;98512.53;;;1.22;100.00
71476;BME280;59286;59.274;17.974;2023-12-20T12:00:41;98508.97;;;1.18;100.00
71476;BME280;59286;59.274;17.974;2023-12-20T12:03:08;98501.06;;;1.15;100.00
71476;BME280;59286;59.274;17.974;2023-12-20T12:05:33;98535.97;;;1.39;100.00
71476;BME280;59286;59.274;17.974;2023-12-20T12:07:58;98509.47;;;1.20;100.00
71476;BME280;59286;59.274;17.974;2023-12-20T12:10:24;98566.00;;;1.62;100.00
71476;BME280;59286;59.274;17.974;2023-12-20T12:12:50;98505.28;;;1.24;100.00
71476;BME280;59286;59.274;17.974;2023-12-20T12:15:15;98489.41;;;1.17;100.00
71476;BME280;59286;59.274;17.974;2023-12-20T12:17:41;98501.81;;;1.15;100.00
71476;BME280;59286;59.274;17.974;2023-12-20T12:20:07;98555.50;;;1.45;100.00
71476;BME280;59286;59.274;17.974;2023-12-20T12:22:33;98503.03;;;1.04;100.00
71476;BME280;59286;59.274;17.974;2023-12-20T12:25:09;98501.88;;;1.10;100.00
71476;BME280;59286;59.274;17.974;2023-12-20T12:27:35;98518.28;;;1.19;100.00
71476;BME280;59286;59.274;17.974;2023-12-20T12:30:02;98493.06;;;0.97;100.00
71476;BME280;59286;59.274;17.974;2023-12-20T12:32:29;98477.00;;;0.87;100.00
71476;BME280;59286;59.274;17.974;2023-12-20T12:34:54;98497.88;;;1.04;100.00
71476;BME280;59286;59.274;17.974;2023-12-20T12:37:20;98511.84;;;1.17;100.00
71476;BME280;59286;59.274;17.974;2023-12-20T12:39:46;98534.13;;;1.26;100.00